Time;durP1;ratioP1;P1;durP2;ratioP2;P2;SDS_P1;SDS_P2;PMS_P1;PMS_P2;Temp;Humidity;BMP_temperature;BMP_pressure;BME280_temperature;BME280_humidity;BME280_pressure;Samples;Min_cycle;Max_cycle;Signal;HPM_P1;HPM_P2
2022/04/29 00:01:22;;;;;;;30.17;18.15;;;;;;;;;;5016532;28;20497;-77
2022/04/29 00:03:48;;;;;;;26.25;18.50;;;;;;;;;;5016480;28;20494;-77
2022/04/29 00:06:14;;;;;;;32.70;19.30;;;;;;;;;;5016492;28;20041;-77
2022/04/29 00:08:39;;;;;;;28.85;18.17;;;;;;;;;;5016501;28;20026;-79
2022/04/29 00:11:06;;;;;;;26.80;17.55;;;;;;;;;;5031684;28;20132;-79
2022/04/29 00:13:32;;;;;;;26.90;17.40;;;;;;;;;;5016292;28;20485;-79
2022/04/29 00:15:58;;;;;;;27.60;18.60;;;;;;;;;;5031616;28;20045;-79
2022/04/29 00:18:23;;;;;;;31.30;20.40;;;;;;;;;;5031506;28;20030;-79
2022/04/29 00:20:49;;;;;;;28.58;18.83;;;;;;;;;;5016201;28;20137;-79
2022/04/29 00:23:14;;;;;;;29.05;18.00;;;;;;;;;;5016323;28;20014;-79
2022/04/29 00:25:40;;;;;;;28.90;17.48;;;;;;;;;;5031370;28;20030;-79
2022/04/29 00:28:05;;;;;;;28.83;17.60;;;;;;;;;;5016382;28;20061;-79
2022/04/29 00:30:31;;;;;;;28.83;18.08;;;;;;;;;;5016011;28;20022;-79
2022/04/29 00:32:56;;;;;;;30.17;17.67;;;;;;;;;;5029972;28;20433;-79
2022/04/29 00:35:21;;;;;;;30.92;18.65;;;;;;;;;;5015875;28;20501;-79
2022/04/29 00:37:49;;;;;;;28.40;17.40;;;;;;;;;;5015949;28;20026;-79
2022/04/29 00:40:15;;;;;;;31.98;18.50;;;;;;;;;;5015851;28;20121;-79
2022/04/29 00:42:41;;;;;;;32.17;18.65;;;;;;;;;;5015813;28;20018;-79
2022/04/29 00:45:07;;;;;;;29.63;18.63;;;;;;;;;;5031114;28;20088;-79
2022/04/29 00:47:32;;;;;;;30.70;18.73;;;;;;;;;;5015896;28;20374;-78
2022/04/29 00:49:57;;;;;;;28.98;18.20;;;;;;;;;;4998140;28;20536;-78
2022/04/29 00:52:23;;;;;;;28.95;17.45;;;;;;;;;;5031025;28;20037;-77
2022/04/29 00:55:02;;;;;;;25.25;17.33;;;;;;;;;;5015761;28;20038;-78
2022/04/29 00:57:30;;;;;;;23.08;16.10;;;;;;;;;;5015598;28;20061;-78
2022/04/29 00:59:59;;;;;;;23.80;15.73;;;;;;;;;;5030755;28;20113;-78
2022/04/29 01:02:24;;;;;;;24.50;16.42;;;;;;;;;;5014194;28;20474;-75
2022/04/29 01:04:57;;;;;;;24.15;15.32;;;;;;;;;;5015474;28;20097;-72
2022/04/29 01:07:23;;;;;;;29.33;16.92;;;;;;;;;;5015555;28;20034;-72
2022/04/29 01:09:48;;;;;;;23.00;15.45;;;;;;;;;;5030563;28;20390;-74
2022/04/29 01:12:14;;;;;;;21.50;14.95;;;;;;;;;;5030402;28;20050;-74
2022/04/29 01:14:40;;;;;;;20.63;15.02;;;;;;;;;;5015096;28;20379;-74
2022/04/29 01:17:05;;;;;;;18.73;14.15;;;;;;;;;;5030617;28;20033;-74
2022/04/29 01:19:30;;;;;;;21.23;15.25;;;;;;;;;;5015121;28;20426;-75
2022/04/29 01:21:59;;;;;;;23.80;14.98;;;;;;;;;;5030344;28;20030;-75
2022/04/29 01:24:25;;;;;;;22.95;15.52;;;;;;;;;;5015216;28;20378;-75
2022/04/29 01:26:50;;;;;;;25.65;16.58;;;;;;;;;;5030205;28;20037;-75
2022/04/29 01:29:16;;;;;;;24.02;15.43;;;;;;;;;;4997407;28;20101;-75
2022/04/29 01:31:43;;;;;;;27.35;16.85;;;;;;;;;;5030110;28;20033;-74
2022/04/29 01:34:09;;;;;;;22.77;15.45;;;;;;;;;;4997227;28;20041;-74
2022/04/29 01:36:34;;;;;;;24.77;15.50;;;;;;;;;;5014829;28;20389;-75
2022/04/29 01:38:59;;;;;;;25.48;15.57;;;;;;;;;;5014822;28;20014;-74
2022/04/29 01:41:25;;;;;;;23.77;16.10;;;;;;;;;;4997144;28;20470;-75
2022/04/29 01:43:50;;;;;;;25.33;16.33;;;;;;;;;;4996717;28;20426;-75
2022/04/29 01:46:16;;;;;;;25.70;14.93;;;;;;;;;;4997063;28;20030;-75
2022/04/29 01:48:56;;;;;;;23.95;14.65;;;;;;;;;;5028027;28;20020;-74
2022/04/29 01:51:27;;;;;;;23.70;14.48;;;;;;;;;;5012563;28;20034;-74
2022/04/29 01:53:54;;;;;;;21.48;15.05;;;;;;;;;;5029768;28;20026;-74
2022/04/29 01:56:20;;;;;;;23.63;15.65;;;;;;;;;;5013305;28;20382;-74
2022/04/29 01:58:46;;;;;;;25.80;15.93;;;;;;;;;;5030108;28;20041;-75
2022/04/29 02:01:12;;;;;;;22.98;15.25;;;;;;;;;;4996725;28;20030;-75
2022/04/29 02:03:37;;;;;;;23.73;15.60;;;;;;;;;;5029565;28;20057;-74
2022/04/29 02:06:03;;;;;;;22.52;15.18;;;;;;;;;;5013448;28;20108;-74
2022/04/29 02:08:30;;;;;;;25.00;15.65;;;;;;;;;;4996920;28;20401;-74
2022/04/29 02:10:55;;;;;;;24.15;16.00;;;;;;;;;;4996548;28;20057;-74
2022/04/29 02:13:25;;;;;;;23.83;15.43;;;;;;;;;;4996538;28;20104;-74
2022/04/29 02:16:10;;;;;;;25.10;15.20;;;;;;;;;;4996549;28;20045;-74
2022/04/29 02:18:36;;;;;;;21.98;14.57;;;;;;;;;;4996534;28;20033;-74
2022/04/29 02:21:01;;;;;;;22.15;14.60;;;;;;;;;;4996413;28;20104;-74
2022/04/29 02:23:27;;;;;;;22.40;14.45;;;;;;;;;;4996408;28;20037;-74
2022/04/29 02:25:52;;;;;;;19.95;14.25;;;;;;;;;;5029185;28;20021;-74
2022/04/29 02:28:17;;;;;;;21.17;14.38;;;;;;;;;;5029216;28;20411;-74
2022/04/29 02:30:43;;;;;;;22.77;14.75;;;;;;;;;;5012702;28;20042;-74
2022/04/29 02:33:08;;;;;;;21.75;14.73;;;;;;;;;;4996287;28;20037;-74
2022/04/29 02:35:33;;;;;;;22.80;15.13;;;;;;;;;;4996251;28;20111;-74
2022/04/29 02:38:00;;;;;;;20.33;14.27;;;;;;;;;;5012499;28;20022;-74
2022/04/29 02:40:25;;;;;;;20.35;14.68;;;;;;;;;;5013893;28;20018;-74
2022/04/29 02:42:51;;;;;;;22.70;14.77;;;;;;;;;;5012535;28;20026;-76
2022/04/29 02:45:16;;;;;;;26.08;15.13;;;;;;;;;;5028915;28;20485;-76
2022/04/29 02:47:43;;;;;;;20.77;15.27;;;;;;;;;;5028982;28;20034;-74
2022/04/29 02:50:09;;;;;;;22.33;14.82;;;;;;;;;;5012422;28;20569;-74
2022/04/29 02:52:35;;;;;;;24.90;14.70;;;;;;;;;;5029097;28;20585;-74
2022/04/29 02:55:00;;;;;;;23.33;14.65;;;;;;;;;;4996012;28;20025;-75
2022/04/29 02:57:50;;;;;;;18.10;13.50;;;;;;;;;;5013259;28;20084;-75
2022/04/29 03:00:16;;;;;;;22.83;15.10;;;;;;;;;;5016521;28;20029;-75
2022/04/29 03:02:42;;;;;;;21.98;14.52;;;;;;;;;;5000091;28;20029;-75
2022/04/29 03:05:07;;;;;;;23.67;14.75;;;;;;;;;;5032837;28;20029;-75
2022/04/29 03:07:33;;;;;;;23.13;14.77;;;;;;;;;;5000020;28;20018;-75
2022/04/29 03:10:00;;;;;;;22.00;15.75;;;;;;;;;;4984033;28;20486;-75
2022/04/29 03:12:25;;;;;;;22.50;14.90;;;;;;;;;;4998236;28;20122;-74
2022/04/29 03:15:17;;;;;;;24.35;15.50;;;;;;;;;;4995186;28;20034;-75
2022/04/29 03:20:30;;;;;;;23.10;15.10;;;;;;;;;;4980528;28;20125;-75
2022/04/29 03:22:56;;;;;;;22.60;15.68;;;;;;;;;;4964169;28;20019;-75
2022/04/29 03:25:21;;;;;;;26.70;16.17;;;;;;;;;;4980451;28;20504;-75
2022/04/29 03:27:47;;;;;;;27.10;16.83;;;;;;;;;;5012781;28;20018;-75
2022/04/29 03:30:12;;;;;;;22.60;15.27;;;;;;;;;;5012620;28;20034;-75
2022/04/29 03:32:38;;;;;;;22.90;15.43;;;;;;;;;;4980056;28;20445;-75
2022/04/29 03:35:06;;;;;;;19.85;15.25;;;;;;;;;;4997444;28;20453;-75
2022/04/29 03:37:31;;;;;;;25.33;15.35;;;;;;;;;;4979973;28;20110;-75
2022/04/29 03:39:56;;;;;;;23.23;14.93;;;;;;;;;;4979968;28;20121;-76
2022/04/29 03:42:22;;;;;;;21.85;15.10;;;;;;;;;;5012439;28;20046;-75
2022/04/29 03:44:48;;;;;;;23.67;15.65;;;;;;;;;;5012678;28;20031;-75
2022/04/29 03:47:14;;;;;;;23.13;15.43;;;;;;;;;;5012553;28;20475;-75
2022/04/29 03:49:54;;;;;;;25.70;15.77;;;;;;;;;;4994134;28;20486;-74
2022/04/29 03:52:22;;;;;;;22.98;15.60;;;;;;;;;;4979699;28;20391;-74
2022/04/29 03:54:51;;;;;;;22.58;14.07;;;;;;;;;;5012206;28;20023;-74
2022/04/29 03:57:17;;;;;;;24.23;15.32;;;;;;;;;;5012200;28;20509;-74
2022/04/29 03:59:42;;;;;;;23.92;15.27;;;;;;;;;;5012302;28;20096;-74
2022/04/29 04:02:08;;;;;;;23.10;15.15;;;;;;;;;;4979619;28;20026;-74
2022/04/29 04:04:33;;;;;;;26.38;15.80;;;;;;;;;;4996964;28;20025;-74
2022/04/29 04:07:03;;;;;;;24.17;16.63;;;;;;;;;;4979210;28;20034;-74
2022/04/29 04:09:36;;;;;;;28.77;17.13;;;;;;;;;;4979355;28;20036;-74
2022/04/29 04:12:05;;;;;;;27.23;16.58;;;;;;;;;;5008199;28;20070;-75
2022/04/29 04:15:00;;;;;;;28.13;15.85;;;;;;;;;;4999567;28;20046;-75
2022/04/29 04:17:25;;;;;;;23.17;14.82;;;;;;;;;;5018553;28;20022;-75
2022/04/29 04:19:51;;;;;;;24.63;14.85;;;;;;;;;;5051367;28;20021;-75
2022/04/29 04:22:17;;;;;;;26.58;15.38;;;;;;;;;;5035997;28;20060;-75
2022/04/29 04:24:42;;;;;;;24.63;15.82;;;;;;;;;;5018218;28;20025;-75
2022/04/29 04:27:08;;;;;;;26.10;15.90;;;;;;;;;;5051559;28;20513;-75
2022/04/29 04:29:33;;;;;;;25.38;16.73;;;;;;;;;;5018139;28;20021;-75
2022/04/29 04:31:58;;;;;;;29.00;17.52;;;;;;;;;;5001799;28;20033;-74
2022/04/29 04:37:08;;;;;;;40.75;19.95;;;;;;;;;;5035729;28;20022;-74
2022/04/29 04:39:33;;;;;;;38.70;21.15;;;;;;;;;;5017920;28;20392;-74
2022/04/29 04:42:05;;;;;;;42.95;21.20;;;;;;;;;;5050955;28;20030;-74
2022/04/29 04:44:41;;;;;;;39.67;21.15;;;;;;;;;;5017766;28;20029;-74
2022/04/29 04:47:06;;;;;;;29.10;18.77;;;;;;;;;;5035584;28;20056;-74
2022/04/29 04:49:50;;;;;;;34.17;19.08;;;;;;;;;;5035858;28;20121;-73
2022/04/29 04:52:22;;;;;;;33.72;20.55;;;;;;;;;;5017891;28;20068;-73
2022/04/29 04:54:48;;;;;;;28.58;18.08;;;;;;;;;;5017649;28;20493;-73
2022/04/29 04:57:14;;;;;;;32.55;19.40;;;;;;;;;;5017606;28;20033;-73
2022/04/29 04:59:39;;;;;;;39.20;22.10;;;;;;;;;;5034065;28;20025;-73
2022/04/29 05:02:04;;;;;;;31.58;20.02;;;;;;;;;;5050523;28;20010;-73
2022/04/29 05:04:50;;;;;;;30.70;19.05;;;;;;;;;;5004575;28;20029;-73
2022/04/29 05:07:15;;;;;;;32.65;19.27;;;;;;;;;;5035480;28;20047;-73
2022/04/29 05:09:41;;;;;;;28.75;18.27;;;;;;;;;;5017341;28;20024;-73
2022/04/29 05:12:07;;;;;;;31.70;16.98;;;;;;;;;;5050412;28;20088;-74
2022/04/29 05:14:51;;;;;;;30.92;17.23;;;;;;;;;;5035085;28;20064;-74
2022/04/29 05:17:17;;;;;;;25.70;16.20;;;;;;;;;;5017284;28;20095;-74
2022/04/29 05:20:03;;;;;;;26.02;16.13;;;;;;;;;;5033549;28;20026;-74
2022/04/29 05:22:31;;;;;;;28.60;16.73;;;;;;;;;;5034296;28;20037;-74
2022/04/29 05:24:57;;;;;;;31.00;16.98;;;;;;;;;;5017065;28;20393;-74
2022/04/29 05:27:41;;;;;;;25.63;16.58;;;;;;;;;;5020269;28;20448;-74
2022/04/29 05:30:44;;;;;;;31.00;16.63;;;;;;;;;;5034631;28;20044;-74
2022/04/29 05:33:29;;;;;;;29.35;17.25;;;;;;;;;;5034841;28;20212;-74
2022/04/29 05:36:13;;;;;;;32.00;18.17;;;;;;;;;;5034916;28;20121;-75
2022/04/29 05:44:27;;;;;;;25.63;15.75;;;;;;;;;;5034479;28;20436;-75
2022/04/29 05:46:53;;;;;;;23.85;15.40;;;;;;;;;;5034369;28;20021;-75
2022/04/29 05:49:20;;;;;;;26.52;15.60;;;;;;;;;;5016610;28;20485;-75
2022/04/29 05:51:47;;;;;;;27.70;16.90;;;;;;;;;;5049678;28;20050;-75
2022/04/29 05:54:13;;;;;;;37.40;19.35;;;;;;;;;;5016648;28;20432;-75
2022/04/29 05:56:39;;;;;;;44.15;21.70;;;;;;;;;;5016674;28;20025;-75
2022/04/29 05:59:08;;;;;;;50.57;27.00;;;;;;;;;;5049771;28;20113;-75
2022/04/29 06:01:52;;;;;;;38.55;22.90;;;;;;;;;;5034559;28;20511;-75
2022/04/29 06:04:20;;;;;;;34.30;18.15;;;;;;;;;;5032366;28;20033;-74
2022/04/29 06:06:46;;;;;;;24.02;15.00;;;;;;;;;;5016416;28;20021;-74
2022/04/29 06:09:12;;;;;;;22.77;13.93;;;;;;;;;;5032898;28;20048;-74
2022/04/29 06:11:37;;;;;;;21.50;13.75;;;;;;;;;;5016239;28;20099;-74
2022/04/29 06:14:05;;;;;;;21.65;14.10;;;;;;;;;;5032915;28;20079;-74
2022/04/29 06:16:51;;;;;;;25.02;14.38;;;;;;;;;;5023181;28;20033;-74
2022/04/29 06:19:45;;;;;;;21.92;13.63;;;;;;;;;;4980458;28;20066;-74
2022/04/29 06:22:31;;;;;;;23.35;13.82;;;;;;;;;;5033783;28;20508;-73
2022/04/29 06:24:57;;;;;;;22.65;13.63;;;;;;;;;;5049241;28;20107;-74
2022/04/29 06:27:22;;;;;;;25.15;15.10;;;;;;;;;;5049070;28;20053;-74
2022/04/29 06:29:48;;;;;;;19.27;12.27;;;;;;;;;;5049007;28;20499;-74
2022/04/29 06:32:14;;;;;;;21.30;13.50;;;;;;;;;;5032480;28;20099;-74
2022/04/29 06:34:49;;;;;;;21.30;13.35;;;;;;;;;;5033861;28;20041;-74
2022/04/29 06:37:14;;;;;;;20.10;13.57;;;;;;;;;;5048949;28;20049;-73
2022/04/29 06:39:41;;;;;;;21.45;13.63;;;;;;;;;;5016100;28;20418;-72
2022/04/29 06:42:21;;;;;;;19.70;11.82;;;;;;;;;;5033569;28;20396;-73
2022/04/29 06:45:10;;;;;;;18.85;12.77;;;;;;;;;;5032125;28;20116;-72
2022/04/29 06:48:13;;;;;;;21.40;13.48;;;;;;;;;;5020284;28;20045;-72
2022/04/29 06:50:58;;;;;;;22.17;13.48;;;;;;;;;;5032685;28;20055;-71
2022/04/29 06:53:45;;;;;;;18.55;11.75;;;;;;;;;;5014642;28;20033;-70
2022/04/29 06:56:11;;;;;;;19.50;12.30;;;;;;;;;;5014697;28;20029;-71
2022/04/29 06:58:36;;;;;;;21.48;12.98;;;;;;;;;;5014648;28;20018;-71
2022/04/29 07:01:02;;;;;;;20.92;13.38;;;;;;;;;;5032278;28;20030;-71
2022/04/29 07:03:27;;;;;;;22.33;12.95;;;;;;;;;;5030976;28;20017;-71
2022/04/29 07:05:53;;;;;;;20.17;11.75;;;;;;;;;;5014502;28;20393;-71
2022/04/29 07:08:20;;;;;;;18.60;12.18;;;;;;;;;;5014504;28;20389;-71
2022/04/29 07:11:04;;;;;;;20.45;12.00;;;;;;;;;;5024181;28;20161;-71
2022/04/29 07:13:47;;;;;;;16.33;10.18;;;;;;;;;;5011128;28;20022;-71
2022/04/29 07:16:13;;;;;;;16.13;10.77;;;;;;;;;;5011074;28;20398;-72
2022/04/29 07:19:06;;;;;;;11.77;7.95;;;;;;;;;;5011143;28;20014;-73
2022/04/29 07:21:31;;;;;;;11.77;7.78;;;;;;;;;;5011080;28;20045;-73
2022/04/29 07:23:59;;;;;;;11.52;6.30;;;;;;;;;;5044055;28;20492;-73
2022/04/29 07:26:29;;;;;;;;;;;;;;;;;;5044572;28;20040;-73
2022/04/29 07:28:54;;;;;;;7.30;5.60;;;;;;;;;;5011308;28;19909;-73
2022/04/29 07:31:23;;;;;;;7.88;5.20;;;;;;;;;;5044028;28;20014;-73
2022/04/29 07:34:18;;;;;;;6.45;4.65;;;;;;;;;;5044184;28;20065;-73
2022/04/29 07:42:47;;;;;;;6.55;4.90;;;;;;;;;;5013620;28;20436;-73
2022/04/29 07:45:13;;;;;;;5.75;4.13;;;;;;;;;;4998286;28;20025;-73
2022/04/29 07:48:00;;;;;;;6.88;5.05;;;;;;;;;;5016092;28;20042;-73
2022/04/29 07:50:29;;;;;;;5.30;4.50;;;;;;;;;;5031355;28;20542;-73
2022/04/29 07:52:56;;;;;;;7.15;5.20;;;;;;;;;;5047640;28;20030;-73
2022/04/29 07:55:22;;;;;;;8.77;5.35;;;;;;;;;;5047422;28;20018;-73
2022/04/29 07:57:48;;;;;;;6.72;5.40;;;;;;;;;;5048239;28;20030;-72
2022/04/29 08:00:14;;;;;;;7.93;5.70;;;;;;;;;;5032083;28;20013;-72
2022/04/29 08:02:43;;;;;;;6.78;4.90;;;;;;;;;;5017167;28;20508;-71
2022/04/29 08:05:08;;;;;;;7.53;5.22;;;;;;;;;;5015382;28;20025;-71
2022/04/29 08:07:34;;;;;;;7.35;5.82;;;;;;;;;;5015614;28;20026;-71
2022/04/29 08:10:01;;;;;;;8.13;5.63;;;;;;;;;;4999211;28;20381;-72
2022/04/29 08:12:27;;;;;;;9.27;6.55;;;;;;;;;;5018275;28;20081;-71
2022/04/29 08:15:13;;;;;;;13.13;7.88;;;;;;;;;;5005443;28;20052;-71
2022/04/29 08:17:49;;;;;;;9.77;6.72;;;;;;;;;;5036411;28;20041;-71
2022/04/29 08:20:15;;;;;;;9.82;6.63;;;;;;;;;;5018522;28;20031;-71
2022/04/29 08:22:43;;;;;;;7.30;5.38;;;;;;;;;;5018782;28;20112;-71
2022/04/29 08:25:09;;;;;;;7.18;5.50;;;;;;;;;;5034556;28;20065;-71
2022/04/29 08:27:34;;;;;;;9.43;6.18;;;;;;;;;;5035604;28;20021;-71
2022/04/29 08:29:59;;;;;;;7.28;5.25;;;;;;;;;;5017534;28;20163;-71
2022/04/29 08:32:26;;;;;;;6.93;4.93;;;;;;;;;;5033863;28;20013;-71
2022/04/29 08:34:52;;;;;;;7.53;5.65;;;;;;;;;;5016021;28;20033;-71
2022/04/29 08:37:21;;;;;;;7.07;5.38;;;;;;;;;;5017298;28;20024;-71
2022/04/29 08:39:47;;;;;;;5.90;5.28;;;;;;;;;;5016995;28;20031;-71
2022/04/29 08:42:17;;;;;;;5.53;3.83;;;;;;;;;;5017888;28;20074;-71
2022/04/29 08:44:43;;;;;;;8.98;4.80;;;;;;;;;;5017817;28;20450;-71
2022/04/29 08:47:29;;;;;;;7.05;4.20;;;;;;;;;;5035242;28;20107;-71
2022/04/29 08:50:08;;;;;;;5.38;4.13;;;;;;;;;;5017746;28;20029;-71
2022/04/29 08:52:35;;;;;;;5.93;4.50;;;;;;;;;;5050426;28;20029;-71
2022/04/29 09:00:33;;;;;;;5.57;3.97;;;;;;;;;;5035372;28;20429;-71
2022/04/29 09:03:00;;;;;;;6.38;4.05;;;;;;;;;;5035282;28;20108;-71
2022/04/29 09:05:26;;;;;;;3.63;3.10;;;;;;;;;;5035533;28;20108;-71
2022/04/29 09:07:56;;;;;;;3.17;2.83;;;;;;;;;;5050585;28;20168;-71
2022/04/29 09:10:25;;;;;;;3.58;3.30;;;;;;;;;;5015332;28;20037;-71
2022/04/29 09:12:50;;;;;;;4.22;3.03;;;;;;;;;;5015320;28;20504;-71
2022/04/29 09:15:16;;;;;;;5.90;3.25;;;;;;;;;;5015255;28;20037;-71
2022/04/29 09:17:46;;;;;;;4.35;3.80;;;;;;;;;;5013948;28;20027;-71
2022/04/29 09:20:16;;;;;;;3.33;3.03;;;;;;;;;;5015210;28;20022;-71
2022/04/29 09:22:48;;;;;;;3.08;2.78;;;;;;;;;;5013996;28;20034;-71
2022/04/29 09:25:46;;;;;;;3.72;2.72;;;;;;;;;;4999363;28;20105;-71
2022/04/29 09:28:35;;;;;;;3.88;2.90;;;;;;;;;;5015146;28;20129;-71
2022/04/29 09:31:15;;;;;;;3.20;2.70;;;;;;;;;;5013745;28;20026;-71
2022/04/29 09:34:01;;;;;;;3.13;2.80;;;;;;;;;;5014774;28;20049;-71
2022/04/29 09:36:32;;;;;;;3.03;2.80;;;;;;;;;;5013760;28;20026;-71
2022/04/29 09:41:56;;;;;;;3.00;2.67;;;;;;;;;;5014835;28;20060;-71
2022/04/29 09:44:31;;;;;;;3.03;2.72;;;;;;;;;;5014712;28;20041;-71
2022/04/29 09:47:10;;;;;;;5.47;3.70;;;;;;;;;;5013453;28;20029;-71
2022/04/29 09:49:36;;;;;;;4.38;4.07;;;;;;;;;;5014724;28;20116;-71
2022/04/29 09:52:01;;;;;;;9.15;8.07;;;;;;;;;;5014796;28;20049;-71
2022/04/29 09:54:30;;;;;;;4.10;3.70;;;;;;;;;;5014502;28;20453;-71
2022/04/29 09:57:06;;;;;;;5.90;3.50;;;;;;;;;;5014633;28;20381;-71
2022/04/29 09:59:40;;;;;;;3.72;2.60;;;;;;;;;;5014544;28;20030;-71
2022/04/29 10:02:06;;;;;;;5.55;2.90;;;;;;;;;;5014455;28;20033;-71
2022/04/29 10:04:34;;;;;;;4.05;2.38;;;;;;;;;;5014162;28;20101;-71
2022/04/29 10:07:02;;;;;;;3.40;3.05;;;;;;;;;;5014409;28;20117;-71
2022/04/29 10:09:29;;;;;;;6.05;2.90;;;;;;;;;;5014397;28;20449;-71
2022/04/29 10:11:57;;;;;;;4.97;2.70;;;;;;;;;;5012857;28;20068;-71
2022/04/29 10:14:22;;;;;;;3.72;2.88;;;;;;;;;;5014145;28;20114;-71
2022/04/29 10:21:15;;;;;;;5.22;3.13;;;;;;;;;;5014189;28;20046;-71
2022/04/29 10:22:54;;;;;;;5.28;2.90;;;;;;;;;;5014255;28;20018;-71
2022/04/29 10:25:20;;;;;;;4.47;2.67;;;;;;;;;;5014085;28;20528;-71
2022/04/29 10:27:46;;;;;;;2.63;2.42;;;;;;;;;;5045933;28;20437;-71
2022/04/29 10:30:11;;;;;;;3.08;2.58;;;;;;;;;;5014015;28;20026;-71
2022/04/29 10:32:58;;;;;;;2.92;2.35;;;;;;;;;;5014102;28;20022;-71
2022/04/29 10:35:38;;;;;;;4.80;3.03;;;;;;;;;;5013923;28;20045;-71
2022/04/29 10:38:04;;;;;;;;;;;;;;;;;;5014407;28;20105;-71
2022/04/29 10:40:30;;;;;;;2.67;2.15;;;;;;;;;;5013894;28;19952;-71
2022/04/29 10:43:06;;;;;;;3.10;2.90;;;;;;;;;;5013954;28;20040;-71
2022/04/29 10:45:32;;;;;;;2.67;2.47;;;;;;;;;;5012600;28;20030;-78
2022/04/29 10:47:57;;;;;;;2.90;2.70;;;;;;;;;;5012575;28;20029;-78
2022/04/29 10:50:36;;;;;;;3.67;2.10;;;;;;;;;;5013746;28;20037;-79
2022/04/29 10:53:41;;;;;;;3.17;2.22;;;;;;;;;;5011600;28;20050;-79
2022/04/29 10:56:30;;;;;;;3.60;2.60;;;;;;;;;;4995314;28;20073;-78
2022/04/29 10:59:11;;;;;;;6.85;3.00;;;;;;;;;;5013122;28;20049;-78
2022/04/29 11:01:47;;;;;;;4.28;2.80;;;;;;;;;;5012547;28;20037;-78
2022/04/29 11:04:15;;;;;;;12.77;7.43;;;;;;;;;;5013639;28;20038;-78
2022/04/29 11:06:42;;;;;;;3.17;2.85;;;;;;;;;;5045453;28;20021;-78
2022/04/29 11:09:24;;;;;;;3.97;2.35;;;;;;;;;;5012482;28;20033;-78
2022/04/29 11:11:51;;;;;;;2.50;2.28;;;;;;;;;;5013480;28;20046;-78
2022/04/29 11:14:55;;;;;;;2.28;1.88;;;;;;;;;;5013706;28;20577;-78
2022/04/29 11:17:41;;;;;;;2.75;2.50;;;;;;;;;;5014499;28;20449;-78
2022/04/29 11:20:20;;;;;;;3.15;2.20;;;;;;;;;;5017466;28;20026;-79
2022/04/29 11:26:06;;;;;;;2.42;2.05;;;;;;;;;;5017492;28;20041;-79
2022/04/29 11:28:40;;;;;;;2.10;2.00;;;;;;;;;;5016399;28;20077;-79
2022/04/29 11:31:33;;;;;;;2.35;2.15;;;;;;;;;;5016155;28;20034;-79
2022/04/29 11:34:06;;;;;;;2.72;1.90;;;;;;;;;;5017029;28;20125;-79
2022/04/29 11:36:32;;;;;;;3.25;1.90;;;;;;;;;;5017199;28;20478;-79
2022/04/29 11:38:57;;;;;;;2.53;2.08;;;;;;;;;;5017141;28;20010;-79
2022/04/29 11:41:27;;;;;;;3.17;2.00;;;;;;;;;;5015949;28;20109;-79
2022/04/29 11:43:53;;;;;;;9.77;6.50;;;;;;;;;;5015747;28;20355;-79
2022/04/29 11:46:19;;;;;;;3.45;3.00;;;;;;;;;;5015860;28;20108;-79
2022/04/29 11:48:57;;;;;;;2.10;1.92;;;;;;;;;;4999348;28;20025;-79
2022/04/29 11:51:23;;;;;;;2.58;2.30;;;;;;;;;;5017143;28;20022;-79
2022/04/29 11:54:07;;;;;;;3.38;2.08;;;;;;;;;;5016761;28;20478;-79
2022/04/29 11:56:33;;;;;;;2.28;2.08;;;;;;;;;;5015711;28;20063;-79
2022/04/29 11:58:59;;;;;;;2.15;1.90;;;;;;;;;;5016774;28;20025;-79
2022/04/29 12:01:28;;;;;;;2.50;1.85;;;;;;;;;;5016802;28;20053;-79
2022/04/29 12:03:54;;;;;;;1.70;1.60;;;;;;;;;;5016751;28;20531;-79
2022/04/29 12:06:19;;;;;;;1.75;1.65;;;;;;;;;;5016590;28;20038;-79
2022/04/29 12:08:45;;;;;;;1.85;1.65;;;;;;;;;;5016541;28;20017;-79
2022/04/29 12:11:30;;;;;;;2.25;1.55;;;;;;;;;;5015391;28;20072;-79
2022/04/29 12:13:57;;;;;;;1.90;1.33;;;;;;;;;;5016463;28;20108;-79
2022/04/29 12:16:22;;;;;;;3.63;1.92;;;;;;;;;;5016015;28;20113;-79
2022/04/29 12:18:49;;;;;;;2.05;1.77;;;;;;;;;;5014932;28;20068;-79
2022/04/29 12:21:23;;;;;;;1.50;1.40;;;;;;;;;;5015314;28;20026;-72
2022/04/29 12:23:49;;;;;;;1.98;1.70;;;;;;;;;;5015492;28;20022;-72
2022/04/29 12:26:15;;;;;;;1.85;1.42;;;;;;;;;;5014746;28;20410;-78
2022/04/29 12:28:41;;;;;;;1.98;1.70;;;;;;;;;;5046918;28;20034;-76
2022/04/29 12:37:19;;;;;;;1.85;1.55;;;;;;;;;;5013717;28;20401;-76
2022/04/29 12:39:51;;;;;;;1.70;1.60;;;;;;;;;;5013662;28;20026;-76
2022/04/29 12:42:17;;;;;;;1.52;1.40;;;;;;;;;;5013740;28;20390;-76
2022/04/29 12:45:04;;;;;;;3.22;1.85;;;;;;;;;;5015134;28;20025;-76
2022/04/29 12:47:46;;;;;;;1.88;1.55;;;;;;;;;;5014767;28;20560;-76
2022/04/29 12:50:16;;;;;;;2.90;1.65;;;;;;;;;;5013547;28;20030;-76
2022/04/29 12:52:57;;;;;;;3.90;2.20;;;;;;;;;;5013501;28;20034;-76
2022/04/29 12:55:22;;;;;;;2.35;2.15;;;;;;;;;;5014820;28;20030;-76
2022/04/29 12:57:48;;;;;;;2.28;1.70;;;;;;;;;;5014625;28;20016;-76
2022/04/29 13:00:24;;;;;;;1.58;1.42;;;;;;;;;;5014543;28;20116;-76
2022/04/29 13:02:59;;;;;;;1.90;1.52;;;;;;;;;;5013116;28;20034;-76
2022/04/29 13:05:24;;;;;;;2.13;1.63;;;;;;;;;;5014406;28;20241;-76
2022/04/29 13:07:50;;;;;;;3.30;2.00;;;;;;;;;;5029630;28;20116;-76
2022/04/29 13:10:17;;;;;;;2.03;1.40;;;;;;;;;;5045950;28;20398;-76
2022/04/29 13:12:44;;;;;;;2.80;1.70;;;;;;;;;;5014154;28;20038;-76
2022/04/29 13:15:23;;;;;;;1.70;1.60;;;;;;;;;;5014376;28;20045;-76
2022/04/29 13:17:49;;;;;;;2.28;1.40;;;;;;;;;;5012993;28;20034;-76
2022/04/29 13:20:14;;;;;;;3.00;1.55;;;;;;;;;;5014265;28;20327;-77
2022/04/29 13:22:40;;;;;;;2.30;1.30;;;;;;;;;;5046033;28;20025;-76
2022/04/29 13:25:07;;;;;;;2.58;1.38;;;;;;;;;;5046014;28;20048;-76
2022/04/29 13:27:34;;;;;;;1.13;1.02;;;;;;;;;;5045819;28;20030;-76
2022/04/29 13:30:00;;;;;;;1.73;1.23;;;;;;;;;;5013980;28;20466;-76
2022/04/29 13:32:25;;;;;;;1.65;1.55;;;;;;;;;;5013924;28;20030;-76
2022/04/29 13:34:51;;;;;;;1.73;1.60;;;;;;;;;;5014334;28;20028;-76
2022/04/29 13:37:17;;;;;;;1.35;1.25;;;;;;;;;;5013774;28;20113;-76
2022/04/29 13:39:43;;;;;;;1.75;1.20;;;;;;;;;;5013233;28;20018;-76
2022/04/29 13:42:15;;;;;;;3.17;1.50;;;;;;;;;;5012410;28;20390;-76
2022/04/29 13:44:42;;;;;;;1.50;1.40;;;;;;;;;;5014698;28;20044;-76
2022/04/29 13:47:08;;;;;;;1.63;1.52;;;;;;;;;;5014800;28;20029;-77
2022/04/29 13:49:33;;;;;;;1.38;1.27;;;;;;;;;;5015026;28;20074;-77
2022/04/29 13:53:07;;;;;;;1.60;1.50;;;;;;;;;;5014885;28;20041;-77
2022/04/29 13:54:44;;;;;;;3.22;1.60;;;;;;;;;;5014957;28;20038;-77
2022/04/29 13:57:09;;;;;;;1.92;1.10;;;;;;;;;;5014928;28;20022;-77
2022/04/29 13:59:35;;;;;;;2.65;1.60;;;;;;;;;;5014914;28;20113;-77
2022/04/29 14:02:00;;;;;;;1.60;1.50;;;;;;;;;;5014617;28;20049;-77
2022/04/29 14:04:26;;;;;;;2.47;1.65;;;;;;;;;;5014381;28;20414;-73
2022/04/29 14:06:52;;;;;;;2.25;1.65;;;;;;;;;;5013262;28;20339;-74
2022/04/29 14:09:17;;;;;;;1.60;1.50;;;;;;;;;;5014358;28;20116;-70
2022/04/29 14:11:43;;;;;;;3.38;1.52;;;;;;;;;;5014341;28;20048;-79
2022/04/29 14:14:08;;;;;;;1.70;1.60;;;;;;;;;;5046283;28;20029;-76
2022/04/29 14:16:34;;;;;;;3.55;1.35;;;;;;;;;;5014578;28;20053;-76
2022/04/29 14:19:00;;;;;;;1.88;1.40;;;;;;;;;;5008345;28;20026;-78
2022/04/29 14:21:26;;;;;;;1.75;1.55;;;;;;;;;;5013850;28;20021;-77
2022/04/29 14:23:52;;;;;;;2.40;1.70;;;;;;;;;;5014063;28;20837;-77
2022/04/29 14:26:17;;;;;;;1.98;1.75;;;;;;;;;;5046106;28;20014;-77
2022/04/29 14:28:43;;;;;;;1.70;1.60;;;;;;;;;;5013395;28;20025;-77
2022/04/29 14:31:09;;;;;;;3.92;1.70;;;;;;;;;;5012985;28;20029;-77
2022/04/29 14:33:34;;;;;;;2.63;1.40;;;;;;;;;;5012891;28;20390;-77
2022/04/29 14:36:00;;;;;;;1.70;1.40;;;;;;;;;;5011627;28;20026;-78
2022/04/29 14:38:25;;;;;;;3.40;1.30;;;;;;;;;;5012887;28;20374;-77
2022/04/29 14:40:52;;;;;;;8.95;4.82;;;;;;;;;;5013504;28;20022;-74
2022/04/29 14:43:17;;;;;;;5.22;3.50;;;;;;;;;;5013831;28;20037;-78
2022/04/29 14:45:43;;;;;;;10.88;6.43;;;;;;;;;;5013762;28;20030;-78
2022/04/29 14:48:08;;;;;;;3.45;2.58;;;;;;;;;;5012576;28;20033;-78
2022/04/29 14:50:35;;;;;;;9.75;5.03;;;;;;;;;;5012459;28;20022;-78
2022/04/29 14:53:00;;;;;;;10.55;7.28;;;;;;;;;;5012247;28;20076;-79
2022/04/29 14:55:26;;;;;;;5.57;3.35;;;;;;;;;;5012417;28;20022;-79
2022/04/29 14:57:51;;;;;;;4.10;2.05;;;;;;;;;;5009308;28;20026;-78
2022/04/29 15:00:17;;;;;;;4.97;2.47;;;;;;;;;;5010856;28;20539;-79
2022/04/29 15:02:42;;;;;;;4.57;2.65;;;;;;;;;;5010474;28;20026;-79
2022/04/29 15:05:08;;;;;;;3.47;1.95;;;;;;;;;;5010657;28;20582;-78
2022/04/29 15:07:35;;;;;;;4.03;2.28;;;;;;;;;;5010714;28;20039;-79
2022/04/29 15:15:37;;;;;;;2.85;2.05;;;;;;;;;;5011839;28;20026;-79
2022/04/29 15:18:07;;;;;;;2.33;2.22;;;;;;;;;;5010761;28;20057;-79
2022/04/29 15:20:34;;;;;;;2.13;1.90;;;;;;;;;;5011529;28;20026;-80
2022/04/29 15:22:59;;;;;;;2.67;1.85;;;;;;;;;;5011254;28;20024;-80
2022/04/29 15:25:25;;;;;;;2.13;1.90;;;;;;;;;;5012435;28;20029;-80
2022/04/29 15:27:50;;;;;;;2.38;1.70;;;;;;;;;;5011060;28;20026;-79
2022/04/29 15:30:15;;;;;;;2.53;2.28;;;;;;;;;;5012358;28;20038;-78